PST,Max TemperatureF,Mean TemperatureF,Min TemperatureF,Max Dew PointF,MeanDew PointF,Min DewpointF,Max Humidity, Mean Humidity, Min Humidity, Max Sea Level PressureIn, Mean Sea Level PressureIn, Min Sea Level PressureIn, Max VisibilityMiles, Mean VisibilityMiles, Min VisibilityMiles, Max Wind SpeedMPH, Mean Wind SpeedMPH, Max Gust SpeedMPH,PrecipitationIn, CloudCover, Events, WindDirDegrees
2013-11-1,61,43,24,36,27,19,85,61,36,30.36,30.24,30.15,10,10,10,9,2,15,0.00,0,,163
2013-11-2,60,43,25,30,22,17,78,49,19,30.14,30.01,29.84,10,10,10,24,6,31,0.00,2,,183
2013-11-3,51,43,34,31,28,24,75,60,45,29.93,29.88,29.83,10,10,10,17,5,22,T,2,,167
2013-11-4,46,36,25,17,14,10,68,48,27,30.16,30.00,29.86,10,10,9,14,3,21,T,1,Snow,81
2013-11-5,56,38,20,20,16,12,69,44,18,30.35,30.24,30.13,10,10,10,9,1,14,0.00,0,,128
2013-11-6,58,41,24,32,25,18,75,54,32,30.44,30.34,30.28,10,10,9,12,2,16,0.00,0,,161
2013-11-7,61,45,29,28,18,9,85,49,13,30.30,30.19,30.08,10,10,8,20,4,28,0.00,0,,202
2013-11-8,61,46,30,27,20,12,64,42,19,30.12,30.06,29.98,10,10,10,21,5,29,0.00,0,,196
2013-11-9,63,44,25,32,23,19,75,48,20,30.20,30.11,30.05,10,10,10,10,2,14,0.00,0,,157
2013-11-10,62,43,24,28,19,14,75,48,20,30.28,30.20,30.13,10,10,10,9,2,14,0.00,0,,117
2013-11-11,64,45,25,30,19,12,60,39,17,30.33,30.26,30.20,10,10,10,9,2,13,0.00,0,,175
2013-11-12,64,48,32,30,23,16,61,39,16,30.38,30.32,30.25,10,10,9,15,2,22,0.00,3,,195
2013-11-13,61,44,27,33,25,21,81,53,25,30.40,30.31,30.23,10,10,10,10,2,17,0.00,0,,161
2013-11-14,62,47,31,27,22,17,81,50,19,30.23,30.07,29.80,10,10,10,20,4,32,0.00,0,,189
2013-11-15,48,38,28,29,25,22,78,58,38,29.85,29.76,29.70,10,10,10,13,4,19,0.00,3,,107
2013-11-16,50,39,28,30,25,21,75,54,32,29.89,29.76,29.67,10,10,10,22,13,27,0.00,1,,194
2013-11-17,59,41,22,29,23,17,81,55,28,30.16,30.03,29.90,10,10,10,9,3,14,0.00,0,,180
2013-11-18,55,39,22,31,26,16,81,58,35,30.15,30.06,29.96,10,10,9,21,5,28,0.00,1,,204
2013-11-19,48,43,38,36,33,30,79,69,58,30.07,29.98,29.90,10,10,10,23,11,27,0.02,6,Rain,191
2013-11-20,44,40,35,36,33,31,89,80,70,29.97,29.87,29.80,10,8,2,15,6,18,0.30,8,Rain-Snow,191
2013-11-21,36,31,25,32,24,13,89,71,53,30.23,30.01,29.82,10,5,0,16,4,25,0.07,8,Fog-Rain-Snow,23
2013-11-22,35,30,25,12,7,0,55,41,27,30.30,30.22,30.14,10,10,10,18,7,31,0.00,2,,14
2013-11-23,42,35,28,11,6,2,46,33,20,30.17,30.12,30.08,10,10,10,16,8,25,0.00,2,,48
2013-11-24,49,34,18,18,14,11,74,49,24,30.36,30.23,30.14,10,9,0,8,3,10,0.00,0,,196
2013-11-25,55,37,18,23,19,12,80,53,26,30.45,30.36,30.30,10,10,10,9,3,11,0.00,0,,169
2013-11-26,54,37,20,29,23,15,84,60,35,30.41,30.27,30.13,10,9,0,7,3,10,0.00,0,,161
2013-11-27,54,41,28,31,24,22,78,53,28,30.11,30.02,29.91,,,,8,1,10,0.00,0,,187
2013-11-28,50,38,26,28,24,21,85,62,39,30.16,30.04,29.95,,,,10,1,15,0.00,1,,192
2013-11-29,51,36,21,30,22,16,84,60,36,30.36,30.25,30.14,,,,8,3,11,0.00,0,,190
2013-11-30,53,37,20,28,20,15,84,58,32,30.42,30.34,30.24,,,,8,3,10,0.00,0,,189